Terminal Aerodrome Forecast
Issued by NWS Wilmington, OH

Current Version | Previous Version | Text Only | Print | Product List | Glossary Off
Versions: 1 2 3 4 5 6 7 8 9 10 11 12 13 14 15 16 17

000
FTUS41 KILN 290500
TAFCMH
TAF
KCMH 290520Z 2906/3006 VRB03KT P6SM SKC
     FM291400 17010KT P6SM SCT200
     FM291700 18015G23KT P6SM BKN150
     FM292300 19010KT P6SM -SHRA SCT050 OVC080
     FM300500 21010KT P6SM VCSH OVC025=

USA.gov is the U.S. government's official web portal to all federal, state and local government web resources and services.